createdAt,value
2023-01-19T00:01:04.690Z,82.29
2023-01-19T00:03:51.283Z,82.04
2023-01-19T00:06:37.990Z,81.88
2023-01-19T00:09:24.250Z,81.62
2023-01-19T00:12:10.513Z,81.71
2023-01-19T00:14:57.183Z,81.61
2023-01-19T00:17:43.641Z,81.45
2023-01-19T00:20:32.091Z,81.39
2023-01-19T00:23:18.666Z,81.08
2023-01-19T00:26:05.204Z,81.29
2023-01-19T00:28:51.437Z,81.39
2023-01-19T00:31:38.207Z,81.53
2023-01-19T00:34:24.380Z,81.71
2023-01-19T00:37:10.710Z,81.65
2023-01-19T00:39:57.287Z,81.79
2023-01-19T00:42:48.397Z,81.56
2023-01-19T00:45:35.298Z,81.47
2023-01-19T00:48:22.088Z,81.26
2023-01-19T00:51:08.264Z,81.33
2023-01-19T00:53:54.655Z,81.26
2023-01-19T00:56:40.992Z,81.24
2023-01-19T00:59:27.477Z,81.28
2023-01-19T01:02:13.928Z,81.27
2023-01-19T01:05:02.769Z,81.34
2023-01-19T01:07:49.874Z,81.35
2023-01-19T01:10:36.483Z,81.53
2023-01-19T01:13:26.234Z,81.15
2023-01-19T01:16:16.890Z,81.23
2023-01-19T01:19:03.492Z,81.09
2023-01-19T01:21:51.228Z,81.13
2023-01-19T01:24:38.273Z,81.06
2023-01-19T01:27:24.814Z,81.06
2023-01-19T01:30:13.158Z,80.88
2023-01-19T01:32:59.754Z,81.00
2023-01-19T01:35:46.252Z,80.64
2023-01-19T01:38:32.898Z,80.52
2023-01-19T01:41:20.590Z,80.47
2023-01-19T01:44:49.507Z,80.51
2023-01-19T01:47:45.694Z,80.37
2023-01-19T01:50:34.282Z,80.47
2023-01-19T01:53:20.804Z,80.38
2023-01-19T01:56:11.349Z,80.39
2023-01-19T01:58:58.602Z,80.22
2023-01-19T02:02:03.557Z,80.23
2023-01-19T02:04:53.543Z,80.24
2023-01-19T02:08:05.338Z,80.10
2023-01-19T02:11:10.747Z,79.75
2023-01-19T02:13:57.414Z,79.69
2023-01-19T02:16:43.777Z,79.40
2023-01-19T02:19:41.291Z,79.64
2023-01-19T02:22:42.072Z,79.65
2023-01-19T02:25:28.318Z,79.74
2023-01-19T02:28:15.234Z,80.06
2023-01-19T02:31:01.346Z,79.75
2023-01-19T02:33:47.511Z,80.13
2023-01-19T02:36:46.773Z,79.29
2023-01-19T02:39:37.124Z,79.39
2023-01-19T02:42:32.616Z,79.12
2023-01-19T02:45:22.967Z,79.59
2023-01-19T02:48:09.360Z,79.49
2023-01-19T02:51:04.279Z,79.58
2023-01-19T02:54:20.170Z,79.44
2023-01-19T02:57:21.389Z,79.76
2023-01-19T03:00:20.350Z,79.95
2023-01-19T03:03:25.646Z,79.79
2023-01-19T03:06:30.612Z,80.10
2023-01-19T03:09:28.513Z,80.01
2023-01-19T03:12:40.220Z,80.18
2023-01-19T03:15:40.960Z,80.12
2023-01-19T03:18:29.073Z,80.21
2023-01-19T03:21:16.410Z,80.34
2023-01-19T03:24:04.921Z,80.31
2023-01-19T03:26:58.859Z,80.47
2023-01-19T03:29:48.732Z,80.53
2023-01-19T03:32:39.476Z,80.80
2023-01-19T03:35:29.733Z,80.91
2023-01-19T03:38:18.973Z,81.07
2023-01-19T03:41:09.637Z,80.86
2023-01-19T03:43:56.754Z,81.04
2023-01-19T03:46:44.644Z,81.04
2023-01-19T03:49:31.695Z,81.40
2023-01-19T03:52:18.373Z,81.43
2023-01-19T03:55:06.120Z,81.73
2023-01-19T03:57:52.573Z,81.76
2023-01-19T04:00:39.672Z,81.52
2023-01-19T04:03:26.281Z,81.84
2023-01-19T04:06:12.938Z,81.88
2023-01-19T04:08:59.469Z,81.71
2023-01-19T04:11:46.167Z,81.78
2023-01-19T04:14:32.576Z,81.85
2023-01-19T04:17:19.153Z,82.03
2023-01-19T04:20:06.150Z,82.21
2023-01-19T04:22:52.542Z,82.50
2023-01-19T04:25:39.038Z,82.43
2023-01-19T04:28:26.389Z,82.21
2023-01-19T04:31:12.877Z,82.14
2023-01-19T04:33:59.273Z,82.33
2023-01-19T04:36:46.699Z,82.23
2023-01-19T04:39:33.085Z,82.54
2023-01-19T04:42:19.735Z,82.75
2023-01-19T04:45:06.718Z,82.55
2023-01-19T04:47:53.202Z,82.77
2023-01-19T04:50:39.956Z,82.68
2023-01-19T04:53:26.252Z,82.80
2023-01-19T04:56:12.944Z,82.81
2023-01-19T04:58:59.504Z,82.93
2023-01-19T05:01:45.824Z,82.56
2023-01-19T05:04:32.024Z,82.65
2023-01-19T05:07:18.482Z,82.65
2023-01-19T05:10:06.462Z,82.54
2023-01-19T05:12:52.836Z,82.59
2023-01-19T05:15:39.138Z,82.27
2023-01-19T05:18:25.731Z,82.18
2023-01-19T05:21:12.086Z,81.95
2023-01-19T05:23:58.108Z,82.22
2023-01-19T05:26:44.635Z,82.07
2023-01-19T05:29:30.837Z,82.00
2023-01-19T05:32:17.431Z,82.26
2023-01-19T05:35:04.390Z,82.18
2023-01-19T05:37:51.164Z,82.09
2023-01-19T05:40:37.646Z,81.93
2023-01-19T05:43:25.337Z,82.02
2023-01-19T05:46:12.066Z,82.01
2023-01-19T05:49:01.690Z,82.04
2023-01-19T05:51:48.156Z,82.10
2023-01-19T05:54:34.635Z,81.97
2023-01-19T05:57:21.975Z,82.20
2023-01-19T06:00:09.006Z,82.16
2023-01-19T06:02:55.753Z,82.03
2023-01-19T06:05:42.311Z,82.39
2023-01-19T06:08:29.614Z,82.01
2023-01-19T06:11:15.909Z,82.20
2023-01-19T06:14:02.684Z,81.98
2023-01-19T06:16:48.830Z,82.20
2023-01-19T06:19:35.269Z,82.18
2023-01-19T06:22:21.633Z,82.06
2023-01-19T06:25:08.763Z,82.24
2023-01-19T06:27:55.253Z,82.18
2023-01-19T06:30:41.710Z,82.37
2023-01-19T06:33:28.654Z,82.31
2023-01-19T06:36:15.557Z,82.17
2023-01-19T06:39:06.014Z,82.15
2023-01-19T06:41:52.640Z,82.07
2023-01-19T06:44:39.143Z,82.13
2023-01-19T06:47:25.670Z,82.06
2023-01-19T06:50:11.713Z,81.90
2023-01-19T06:52:58.781Z,81.65
2023-01-19T06:55:45.447Z,81.50
2023-01-19T06:58:31.999Z,81.57
2023-01-19T07:01:18.187Z,81.50
2023-01-19T07:04:04.547Z,81.19
2023-01-19T07:06:51.111Z,81.11
2023-01-19T07:09:37.315Z,80.94
2023-01-19T07:12:23.892Z,80.23
2023-01-19T07:15:11.730Z,80.32
2023-01-19T07:17:58.959Z,80.23
2023-01-19T07:20:46.876Z,80.14
2023-01-19T07:23:34.157Z,80.17
2023-01-19T07:26:21.748Z,79.96
2023-01-19T07:29:08.146Z,79.52
2023-01-19T07:31:54.813Z,79.78
2023-01-19T07:34:41.135Z,79.66
2023-01-19T07:37:27.546Z,79.44
2023-01-19T07:40:14.722Z,79.08
2023-01-19T07:43:01.157Z,78.96
2023-01-19T07:45:47.747Z,78.86
2023-01-19T07:48:34.440Z,79.12
2023-01-19T07:51:20.741Z,79.19
2023-01-19T07:54:08.552Z,78.82
2023-01-19T07:56:55.165Z,78.47
2023-01-19T07:59:41.583Z,78.94
2023-01-19T08:02:27.943Z,78.93
2023-01-19T08:05:15.414Z,78.35
2023-01-19T08:08:02.234Z,78.80
2023-01-19T08:10:52.146Z,78.47
2023-01-19T08:13:38.810Z,78.47
2023-01-19T08:16:25.399Z,78.44
2023-01-19T08:19:12.105Z,78.07
2023-01-19T08:21:59.187Z,77.75
2023-01-19T08:24:45.511Z,77.96
2023-01-19T08:27:31.777Z,78.18
2023-01-19T08:30:18.291Z,77.95
2023-01-19T08:33:05.015Z,77.60
2023-01-19T08:35:53.345Z,77.07
2023-01-19T08:38:43.553Z,75.93
2023-01-19T08:41:30.219Z,75.31
2023-01-19T08:44:16.969Z,75.53
2023-01-19T08:47:03.584Z,73.96
2023-01-19T08:49:50.267Z,74.10
2023-01-19T08:52:36.452Z,74.13
2023-01-19T08:55:23.416Z,72.84
2023-01-19T08:58:10.274Z,73.11
2023-01-19T09:00:56.918Z,72.30
2023-01-19T09:03:43.967Z,71.03
2023-01-19T09:06:30.763Z,71.42
2023-01-19T09:09:16.962Z,70.19
2023-01-19T09:12:03.842Z,69.25
2023-01-19T09:14:50.292Z,69.48
2023-01-19T09:17:36.666Z,68.89
2023-01-19T09:20:23.538Z,68.18
2023-01-19T09:23:11.113Z,68.28
2023-01-19T09:25:59.596Z,68.64
2023-01-19T09:28:45.931Z,69.65
2023-01-19T09:31:32.239Z,68.16
2023-01-19T09:34:18.946Z,70.08
2023-01-19T09:37:05.174Z,69.23
2023-01-19T09:39:51.669Z,68.91
2023-01-19T09:43:06.365Z,67.86
2023-01-19T09:46:00.905Z,67.93
2023-01-19T09:48:48.199Z,66.47
2023-01-19T09:51:38.394Z,65.21
2023-01-19T09:54:41.057Z,66.44
2023-01-19T09:57:27.841Z,66.30
2023-01-19T10:00:17.100Z,65.15
2023-01-19T10:03:22.752Z,64.62
2023-01-19T10:06:12.017Z,62.80
2023-01-19T10:09:32.004Z,63.01
2023-01-19T10:12:31.722Z,62.19
2023-01-19T10:15:42.921Z,63.10
2023-01-19T10:18:43.233Z,61.95
2023-01-19T10:21:40.164Z,61.51
2023-01-19T10:24:43.130Z,60.55
2023-01-19T10:27:31.509Z,62.33
2023-01-19T10:30:25.857Z,60.84
2023-01-19T10:33:13.787Z,61.40
2023-01-19T10:36:04.134Z,60.33
2023-01-19T10:38:51.029Z,59.54
2023-01-19T10:41:42.047Z,59.95
2023-01-19T10:44:34.160Z,59.35
2023-01-19T10:47:21.705Z,60.49
2023-01-19T10:50:30.742Z,59.78
2023-01-19T10:53:22.343Z,60.14
2023-01-19T10:56:16.175Z,60.18
2023-01-19T10:59:04.922Z,59.61
2023-01-19T11:02:17.399Z,60.97
2023-01-19T11:05:30.085Z,59.21
2023-01-19T11:08:30.628Z,60.33
2023-01-19T11:11:18.751Z,59.24
2023-01-19T11:14:11.075Z,58.55
2023-01-19T11:16:58.317Z,57.98
2023-01-19T11:19:53.506Z,57.60
2023-01-19T11:22:40.084Z,57.39
2023-01-19T11:25:31.054Z,56.34
2023-01-19T11:28:37.109Z,55.44
2023-01-19T11:31:29.705Z,55.49
2023-01-19T11:34:24.405Z,54.07
2023-01-19T11:37:31.566Z,54.27
2023-01-19T11:40:18.017Z,53.42
2023-01-19T11:43:04.669Z,54.26
2023-01-19T11:45:51.604Z,55.00
2023-01-19T11:49:02.173Z,53.76
2023-01-19T11:52:16.163Z,53.18
2023-01-19T11:55:18.968Z,54.38
2023-01-19T11:58:05.696Z,54.39
2023-01-19T12:00:53.452Z,54.34
2023-01-19T12:03:46.863Z,51.81
2023-01-19T12:06:36.796Z,52.70
2023-01-19T12:09:36.167Z,53.62
2023-01-19T12:12:35.321Z,55.75
2023-01-19T12:15:32.093Z,55.22
2023-01-19T12:18:22.614Z,54.75
2023-01-19T12:21:08.974Z,53.31
2023-01-19T12:24:04.887Z,54.54
2023-01-19T12:26:55.823Z,53.82
2023-01-19T12:29:42.490Z,52.16
2023-01-19T12:32:34.931Z,51.96
2023-01-19T12:35:59.725Z,50.82
2023-01-19T12:47:24.595Z,52.30
2023-01-19T12:50:17.383Z,53.35
2023-01-19T12:53:04.708Z,52.43
2023-01-19T12:56:01.412Z,52.39
2023-01-19T12:58:49.298Z,52.37
2023-01-19T13:01:35.639Z,52.21
2023-01-19T13:04:33.171Z,52.56
2023-01-19T13:07:20.344Z,51.61
2023-01-19T13:10:44.106Z,50.90
2023-01-19T13:13:31.542Z,52.87
2023-01-19T13:16:27.657Z,53.19
2023-01-19T13:19:18.543Z,51.96
2023-01-19T13:22:46.598Z,53.52
2023-01-19T13:25:35.561Z,51.84
2023-01-19T13:28:29.112Z,51.19
2023-01-19T13:31:16.117Z,52.26
2023-01-19T13:34:03.019Z,52.95
2023-01-19T13:36:54.738Z,52.83
2023-01-19T13:39:44.201Z,52.10
2023-01-19T13:42:34.042Z,51.51
2023-01-19T13:45:34.514Z,51.52
2023-01-19T13:48:25.472Z,50.69
2023-01-19T13:51:18.133Z,49.86
2023-01-19T13:54:05.692Z,49.07
2023-01-19T13:56:51.954Z,50.28
2023-01-19T13:59:38.530Z,49.63
2023-01-19T14:02:25.000Z,49.91
2023-01-19T14:05:36.249Z,50.38
2023-01-19T14:08:23.228Z,49.77
2023-01-19T14:11:13.742Z,49.20
2023-01-19T14:14:00.165Z,50.52
2023-01-19T14:16:46.322Z,51.27
2023-01-19T14:19:48.357Z,50.69
2023-01-19T14:22:43.104Z,50.99
2023-01-19T14:25:31.703Z,51.66
2023-01-19T14:28:36.075Z,51.80
2023-01-19T14:31:24.982Z,52.42
2023-01-19T14:34:34.922Z,53.09
2023-01-19T14:37:27.370Z,53.34
2023-01-19T14:40:20.970Z,53.64
2023-01-19T14:43:11.703Z,54.58
2023-01-19T14:45:58.310Z,55.02
2023-01-19T14:48:48.774Z,54.95
2023-01-19T14:51:35.071Z,55.84
2023-01-19T14:54:28.882Z,55.91
2023-01-19T14:57:15.594Z,56.63
2023-01-19T15:00:06.898Z,56.75
2023-01-19T15:02:53.424Z,56.82
2023-01-19T15:05:47.813Z,56.98
2023-01-19T15:08:34.529Z,57.84
2023-01-19T15:11:41.867Z,58.00
2023-01-19T15:14:28.265Z,58.54
2023-01-19T15:17:25.740Z,58.98
2023-01-19T15:20:15.900Z,59.03
2023-01-19T15:23:02.327Z,59.76
2023-01-19T15:25:49.703Z,59.87
2023-01-19T15:28:35.994Z,60.50
2023-01-19T15:31:24.218Z,60.90
2023-01-19T15:34:12.602Z,61.18
2023-01-19T15:36:59.942Z,61.33
2023-01-19T15:39:46.301Z,61.84
2023-01-19T15:42:33.368Z,61.96
2023-01-19T15:45:38.854Z,62.01
2023-01-19T15:48:25.746Z,62.47
2023-01-19T15:51:19.851Z,62.64
2023-01-19T15:54:05.856Z,62.50
2023-01-19T15:56:52.914Z,63.99
2023-01-19T15:59:39.224Z,65.01
2023-01-19T16:02:25.660Z,64.78
2023-01-19T16:05:12.486Z,64.63
2023-01-19T16:08:01.120Z,64.55
2023-01-19T16:10:50.333Z,64.70
2023-01-19T16:13:36.601Z,65.04
2023-01-19T16:16:24.602Z,65.20
2023-01-19T16:19:14.248Z,65.49
2023-01-19T16:22:00.394Z,65.81
2023-01-19T16:24:46.769Z,65.71
2023-01-19T16:27:33.405Z,65.91
2023-01-19T16:30:19.797Z,65.87
2023-01-19T16:33:06.400Z,66.34
2023-01-19T16:35:53.148Z,66.34
2023-01-19T16:38:39.445Z,66.42
2023-01-19T16:41:25.885Z,66.43
2023-01-19T16:44:13.897Z,67.10
2023-01-19T16:47:00.589Z,67.71
2023-01-19T16:49:46.740Z,67.84
2023-01-19T16:52:33.593Z,67.08
2023-01-19T16:55:19.597Z,66.98
2023-01-19T16:58:06.198Z,67.35
2023-01-19T17:00:52.691Z,67.34
2023-01-19T17:03:39.648Z,67.59
2023-01-19T17:06:26.370Z,67.74
2023-01-19T17:09:13.537Z,67.65
2023-01-19T17:12:00.167Z,67.59
2023-01-19T17:14:49.451Z,67.59
2023-01-19T17:17:36.812Z,67.61
2023-01-19T17:20:23.118Z,67.37
2023-01-19T17:23:09.683Z,67.69
2023-01-19T17:25:57.341Z,67.89
2023-01-19T17:28:44.327Z,68.16
2023-01-19T17:31:32.134Z,67.98
2023-01-19T17:34:18.730Z,68.27
2023-01-19T17:37:05.068Z,69.07
2023-01-19T17:39:51.565Z,69.30
2023-01-19T17:42:41.948Z,69.51
2023-01-19T17:45:28.671Z,69.87
2023-01-19T17:48:17.474Z,69.85
2023-01-19T17:51:09.608Z,70.63
2023-01-19T17:53:56.449Z,70.34
2023-01-19T17:56:43.071Z,70.30
2023-01-19T17:59:29.724Z,70.02
2023-01-19T18:02:17.415Z,70.16
2023-01-19T18:05:04.020Z,70.27
2023-01-19T18:07:50.608Z,70.11
2023-01-19T18:10:38.141Z,70.04
2023-01-19T18:13:24.327Z,70.16
2023-01-19T18:16:13.870Z,70.02
2023-01-19T18:19:00.726Z,69.22
2023-01-19T18:21:48.414Z,69.47
2023-01-19T18:24:35.219Z,69.75
2023-01-19T18:27:22.915Z,70.34
2023-01-19T18:30:09.727Z,71.01
2023-01-19T18:32:55.963Z,71.38
2023-01-19T18:35:42.338Z,71.66
2023-01-19T18:38:28.935Z,71.82
2023-01-19T18:41:16.705Z,72.37
2023-01-19T18:44:03.397Z,72.54
2023-01-19T18:46:49.536Z,72.53
2023-01-19T18:49:36.235Z,73.06
2023-01-19T18:52:22.712Z,73.44
2023-01-19T18:55:09.249Z,72.90
2023-01-19T18:57:55.732Z,72.59
2023-01-19T19:00:42.237Z,72.88
2023-01-19T19:03:28.731Z,73.72
2023-01-19T19:06:16.841Z,74.58
2023-01-19T19:09:03.676Z,75.63
2023-01-19T19:11:50.011Z,75.65
2023-01-19T19:14:36.415Z,74.87
2023-01-19T19:17:22.699Z,74.39
2023-01-19T19:20:10.051Z,73.70
2023-01-19T19:22:56.979Z,73.81
2023-01-19T19:25:43.289Z,74.25
2023-01-19T19:28:29.708Z,74.12
2023-01-19T19:31:20.506Z,73.81
2023-01-19T19:34:08.321Z,73.89
2023-01-19T19:36:54.816Z,73.22
2023-01-19T19:39:41.051Z,72.92
2023-01-19T19:42:30.087Z,72.73
2023-01-19T19:45:16.946Z,72.69
2023-01-19T19:48:03.699Z,72.93
2023-01-19T19:50:50.028Z,72.78
2023-01-19T19:53:39.979Z,72.64
2023-01-19T19:56:28.950Z,72.98
2023-01-19T19:59:15.587Z,73.42
2023-01-19T20:02:01.792Z,73.96
2023-01-19T20:04:48.539Z,73.82
2023-01-19T20:07:35.104Z,73.56
2023-01-19T20:10:21.661Z,73.37
2023-01-19T20:13:09.133Z,73.24
2023-01-19T20:15:55.940Z,72.60
2023-01-19T20:18:44.011Z,74.27
2023-01-19T20:21:32.309Z,75.40
2023-01-19T20:24:19.880Z,74.45
2023-01-19T20:27:06.857Z,73.86
2023-01-19T20:29:58.081Z,74.03
2023-01-19T20:32:44.745Z,74.02
2023-01-19T20:35:31.378Z,74.17
2023-01-19T20:38:17.933Z,74.34
2023-01-19T20:41:05.899Z,74.73
2023-01-19T20:43:52.384Z,74.66
2023-01-19T20:46:39.132Z,73.99
2023-01-19T20:49:25.797Z,73.74
2023-01-19T20:52:12.293Z,74.05
2023-01-19T20:54:58.949Z,74.29
2023-01-19T20:57:45.120Z,74.67
2023-01-19T21:00:31.790Z,74.66
2023-01-19T21:03:18.135Z,74.56
2023-01-19T21:06:05.108Z,74.76
2023-01-19T21:08:51.610Z,75.09
2023-01-19T21:11:38.852Z,74.82
2023-01-19T21:14:25.198Z,74.74
2023-01-19T21:17:11.604Z,74.72
2023-01-19T21:19:57.895Z,75.02
2023-01-19T21:22:44.079Z,74.99
2023-01-19T21:25:30.636Z,74.77
2023-01-19T21:28:20.787Z,75.67
2023-01-19T21:31:09.471Z,76.05
2023-01-19T21:33:57.306Z,75.77
2023-01-19T21:36:44.743Z,76.10
2023-01-19T21:39:31.296Z,75.86
2023-01-19T21:42:17.732Z,75.85
2023-01-19T21:45:04.455Z,75.95
2023-01-19T21:47:51.120Z,76.05
2023-01-19T21:50:38.285Z,75.49
2023-01-19T21:53:24.628Z,74.78
2023-01-19T21:56:11.526Z,74.71
2023-01-19T21:58:59.420Z,74.82
2023-01-19T22:01:46.252Z,75.29
2023-01-19T22:04:32.470Z,75.47
2023-01-19T22:07:18.654Z,75.29
2023-01-19T22:10:05.831Z,75.48
2023-01-19T22:12:52.278Z,75.13
2023-01-19T22:15:38.772Z,75.55
2023-01-19T22:18:25.393Z,75.57
2023-01-19T22:21:15.128Z,75.72
2023-01-19T22:24:02.940Z,75.72
2023-01-19T22:26:49.691Z,75.62
2023-01-19T22:29:36.013Z,75.44
2023-01-19T22:32:22.450Z,75.35
2023-01-19T22:35:08.570Z,75.55
2023-01-19T22:37:55.280Z,75.97
2023-01-19T22:40:41.826Z,76.03
2023-01-19T22:43:28.076Z,75.94
2023-01-19T22:46:19.137Z,77.09
2023-01-19T22:49:07.558Z,77.08
2023-01-19T22:51:54.905Z,77.52
2023-01-19T22:54:41.139Z,76.62
2023-01-19T22:57:27.460Z,76.92
2023-01-19T23:00:14.592Z,76.76
2023-01-19T23:03:00.654Z,76.76
2023-01-19T23:05:47.334Z,77.55
2023-01-19T23:08:34.524Z,77.78
2023-01-19T23:11:23.646Z,77.52
2023-01-19T23:14:15.368Z,76.69
2023-01-19T23:17:01.748Z,76.48
2023-01-19T23:19:48.062Z,76.96
2023-01-19T23:22:34.046Z,76.66
2023-01-19T23:25:20.400Z,76.36
2023-01-19T23:28:07.092Z,76.53
2023-01-19T23:30:53.249Z,76.33
2023-01-19T23:33:41.548Z,76.41
2023-01-19T23:36:29.899Z,76.33
2023-01-19T23:39:19.561Z,76.38
2023-01-19T23:42:08.188Z,76.44
2023-01-19T23:44:55.368Z,76.57
2023-01-19T23:47:43.333Z,76.59
2023-01-19T23:50:30.095Z,77.10
2023-01-19T23:53:16.684Z,77.74
2023-01-19T23:56:17.987Z,78.02
2023-01-19T23:59:09.738Z,77.85
